sensor_id;sensor_type;location;lat;lon;timestamp;temperature;humidity
19258;DHT22;9763;48.780;9.212;2022-10-22T00:03:16;16.30;89.00
19258;DHT22;9763;48.780;9.212;2022-10-22T00:06:41;16.30;88.30
19258;DHT22;9763;48.780;9.212;2022-10-22T00:10:07;16.30;88.90
19258;DHT22;9763;48.780;9.212;2022-10-22T00:13:31;16.20;89.10
19258;DHT22;9763;48.780;9.212;2022-10-22T00:16:54;16.20;89.30
19258;DHT22;9763;48.780;9.212;2022-10-22T00:20:22;16.20;88.80
19258;DHT22;9763;48.780;9.212;2022-10-22T00:23:46;16.10;90.00
19258;DHT22;9763;48.780;9.212;2022-10-22T00:27:11;16.10;90.10
19258;DHT22;9763;48.780;9.212;2022-10-22T00:30:35;16.10;90.30
19258;DHT22;9763;48.780;9.212;2022-10-22T00:34:00;16.10;90.40
19258;DHT22;9763;48.780;9.212;2022-10-22T00:37:24;16.20;90.30
19258;DHT22;9763;48.780;9.212;2022-10-22T00:40:49;16.10;90.30
19258;DHT22;9763;48.780;9.212;2022-10-22T00:48:26;16.10;90.30
19258;DHT22;9763;48.780;9.212;2022-10-22T00:51:51;16.10;90.70
19258;DHT22;9763;48.780;9.212;2022-10-22T00:55:16;16.10;90.90
19258;DHT22;9763;48.780;9.212;2022-10-22T00:58:44;16.10;91.00
19258;DHT22;9763;48.780;9.212;2022-10-22T01:02:10;16.10;90.90
19258;DHT22;9763;48.780;9.212;2022-10-22T01:05:40;16.20;91.20
19258;DHT22;9763;48.780;9.212;2022-10-22T01:09:13;16.10;91.20
19258;DHT22;9763;48.780;9.212;2022-10-22T01:12:52;16.20;91.20
19258;DHT22;9763;48.780;9.212;2022-10-22T01:16:28;16.20;91.20
19258;DHT22;9763;48.780;9.212;2022-10-22T01:20:05;16.20;91.20
19258;DHT22;9763;48.780;9.212;2022-10-22T01:27:57;16.20;91.00
19258;DHT22;9763;48.780;9.212;2022-10-22T01:31:33;16.20;91.10
19258;DHT22;9763;48.780;9.212;2022-10-22T01:35:03;16.10;90.70
19258;DHT22;9763;48.780;9.212;2022-10-22T01:38:30;16.20;91.10
19258;DHT22;9763;48.780;9.212;2022-10-22T01:41:55;16.20;91.00
19258;DHT22;9763;48.780;9.212;2022-10-22T01:45:19;16.20;91.00
19258;DHT22;9763;48.780;9.212;2022-10-22T01:48:55;16.20;91.20
19258;DHT22;9763;48.780;9.212;2022-10-22T01:52:38;16.20;91.30
19258;DHT22;9763;48.780;9.212;2022-10-22T01:56:25;16.20;91.30
19258;DHT22;9763;48.780;9.212;2022-10-22T02:00:02;16.20;91.40
19258;DHT22;9763;48.780;9.212;2022-10-22T02:03:35;16.20;91.60
19258;DHT22;9763;48.780;9.212;2022-10-22T02:07:10;16.20;91.60
19258;DHT22;9763;48.780;9.212;2022-10-22T02:10:39;16.20;91.70
19258;DHT22;9763;48.780;9.212;2022-10-22T02:14:06;16.20;91.90
19258;DHT22;9763;48.780;9.212;2022-10-22T02:17:34;16.30;92.20
19258;DHT22;9763;48.780;9.212;2022-10-22T02:21:00;16.30;91.80
19258;DHT22;9763;48.780;9.212;2022-10-22T02:24:25;16.30;92.10
19258;DHT22;9763;48.780;9.212;2022-10-22T02:27:55;16.30;92.00
19258;DHT22;9763;48.780;9.212;2022-10-22T02:31:27;16.40;91.60
19258;DHT22;9763;48.780;9.212;2022-10-22T02:34:54;16.40;91.80
19258;DHT22;9763;48.780;9.212;2022-10-22T02:38:19;16.40;91.90
19258;DHT22;9763;48.780;9.212;2022-10-22T02:41:46;16.40;91.80
19258;DHT22;9763;48.780;9.212;2022-10-22T02:45:10;16.40;91.80
19258;DHT22;9763;48.780;9.212;2022-10-22T02:51:58;16.40;91.90
19258;DHT22;9763;48.780;9.212;2022-10-22T02:58:46;16.40;91.90
19258;DHT22;9763;48.780;9.212;2022-10-22T03:02:10;16.40;92.10
19258;DHT22;9763;48.780;9.212;2022-10-22T03:05:35;16.50;91.40
19258;DHT22;9763;48.780;9.212;2022-10-22T03:08:58;16.50;92.10
19258;DHT22;9763;48.780;9.212;2022-10-22T03:12:22;16.50;92.10
19258;DHT22;9763;48.780;9.212;2022-10-22T03:15:48;16.50;92.00
19258;DHT22;9763;48.780;9.212;2022-10-22T03:19:12;16.40;91.90
19258;DHT22;9763;48.780;9.212;2022-10-22T03:22:38;16.40;92.20
19258;DHT22;9763;48.780;9.212;2022-10-22T03:26:04;16.40;92.00
19258;DHT22;9763;48.780;9.212;2022-10-22T03:29:31;16.40;92.10
19258;DHT22;9763;48.780;9.212;2022-10-22T03:32:59;16.40;92.00
19258;DHT22;9763;48.780;9.212;2022-10-22T03:36:22;16.40;92.00
19258;DHT22;9763;48.780;9.212;2022-10-22T03:39:46;18.10;92.90
19258;DHT22;9763;48.780;9.212;2022-10-22T03:43:10;16.40;92.20
19258;DHT22;9763;48.780;9.212;2022-10-22T03:46:34;16.40;92.20
19258;DHT22;9763;48.780;9.212;2022-10-22T03:49:59;16.40;92.20
19258;DHT22;9763;48.780;9.212;2022-10-22T03:53:22;16.40;92.30
19258;DHT22;9763;48.780;9.212;2022-10-22T03:56:45;16.40;92.10
19258;DHT22;9763;48.780;9.212;2022-10-22T04:00:10;16.40;92.30
19258;DHT22;9763;48.780;9.212;2022-10-22T04:03:33;16.40;92.40
19258;DHT22;9763;48.780;9.212;2022-10-22T04:06:58;16.40;92.30
19258;DHT22;9763;48.780;9.212;2022-10-22T04:10:22;16.40;92.40
19258;DHT22;9763;48.780;9.212;2022-10-22T04:13:45;16.40;92.20
19258;DHT22;9763;48.780;9.212;2022-10-22T04:17:09;16.50;92.10
19258;DHT22;9763;48.780;9.212;2022-10-22T04:20:32;16.50;92.00
19258;DHT22;9763;48.780;9.212;2022-10-22T04:23:57;16.40;91.80
19258;DHT22;9763;48.780;9.212;2022-10-22T04:27:21;16.40;91.50
19258;DHT22;9763;48.780;9.212;2022-10-22T04:30:45;16.40;91.30
19258;DHT22;9763;48.780;9.212;2022-10-22T04:34:08;16.30;91.40
19258;DHT22;9763;48.780;9.212;2022-10-22T04:37:32;16.30;91.30
19258;DHT22;9763;48.780;9.212;2022-10-22T04:40:56;16.30;91.40
19258;DHT22;9763;48.780;9.212;2022-10-22T04:44:20;16.20;91.40
19258;DHT22;9763;48.780;9.212;2022-10-22T04:47:44;16.20;91.60
19258;DHT22;9763;48.780;9.212;2022-10-22T04:51:10;16.20;91.50
19258;DHT22;9763;48.780;9.212;2022-10-22T04:54:35;16.20;91.40
19258;DHT22;9763;48.780;9.212;2022-10-22T04:58:00;16.20;91.50
19258;DHT22;9763;48.780;9.212;2022-10-22T05:01:26;16.20;91.40
19258;DHT22;9763;48.780;9.212;2022-10-22T05:04:51;16.20;91.50
19258;DHT22;9763;48.780;9.212;2022-10-22T05:08:14;16.20;91.80
19258;DHT22;9763;48.780;9.212;2022-10-22T05:11:39;16.20;92.00
19258;DHT22;9763;48.780;9.212;2022-10-22T05:15:08;16.20;91.90
19258;DHT22;9763;48.780;9.212;2022-10-22T05:18:34;16.20;91.80
19258;DHT22;9763;48.780;9.212;2022-10-22T05:22:00;16.20;91.90
19258;DHT22;9763;48.780;9.212;2022-10-22T05:25:24;16.20;92.00
19258;DHT22;9763;48.780;9.212;2022-10-22T05:28:48;16.20;92.40
19258;DHT22;9763;48.780;9.212;2022-10-22T05:32:14;16.20;91.90
19258;DHT22;9763;48.780;9.212;2022-10-22T05:35:37;16.20;91.90
19258;DHT22;9763;48.780;9.212;2022-10-22T05:39:06;16.30;92.00
19258;DHT22;9763;48.780;9.212;2022-10-22T05:42:30;16.30;91.70
19258;DHT22;9763;48.780;9.212;2022-10-22T05:45:54;16.30;91.60
19258;DHT22;9763;48.780;9.212;2022-10-22T05:49:19;16.30;91.70
19258;DHT22;9763;48.780;9.212;2022-10-22T05:52:43;16.30;91.90
19258;DHT22;9763;48.780;9.212;2022-10-22T05:56:10;16.30;92.20
19258;DHT22;9763;48.780;9.212;2022-10-22T05:59:35;16.30;92.30
19258;DHT22;9763;48.780;9.212;2022-10-22T06:02:58;16.30;92.60
19258;DHT22;9763;48.780;9.212;2022-10-22T06:06:26;16.30;92.70
19258;DHT22;9763;48.780;9.212;2022-10-22T06:09:52;16.40;92.10
19258;DHT22;9763;48.780;9.212;2022-10-22T06:13:16;16.30;92.30
19258;DHT22;9763;48.780;9.212;2022-10-22T06:16:39;16.30;91.50
19258;DHT22;9763;48.780;9.212;2022-10-22T06:20:05;16.30;92.00
19258;DHT22;9763;48.780;9.212;2022-10-22T06:23:31;16.30;91.90
19258;DHT22;9763;48.780;9.212;2022-10-22T06:26:54;16.40;92.20
19258;DHT22;9763;48.780;9.212;2022-10-22T06:37:07;16.40;92.60
19258;DHT22;9763;48.780;9.212;2022-10-22T06:40:33;16.50;92.70
19258;DHT22;9763;48.780;9.212;2022-10-22T06:43:57;16.50;92.70
19258;DHT22;9763;48.780;9.212;2022-10-22T06:47:21;16.60;92.70
19258;DHT22;9763;48.780;9.212;2022-10-22T06:57:34;16.70;92.70
19258;DHT22;9763;48.780;9.212;2022-10-22T07:01:01;16.80;91.90
19258;DHT22;9763;48.780;9.212;2022-10-22T07:04:26;16.80;92.90
19258;DHT22;9763;48.780;9.212;2022-10-22T07:07:49;16.90;92.60
19258;DHT22;9763;48.780;9.212;2022-10-22T07:11:14;17.00;92.80
19258;DHT22;9763;48.780;9.212;2022-10-22T07:14:40;17.00;92.50
19258;DHT22;9763;48.780;9.212;2022-10-22T07:18:04;17.00;92.90
19258;DHT22;9763;48.780;9.212;2022-10-22T07:21:28;17.00;92.90
19258;DHT22;9763;48.780;9.212;2022-10-22T07:28:17;17.00;93.00
19258;DHT22;9763;48.780;9.212;2022-10-22T07:31:42;17.20;93.50
19258;DHT22;9763;48.780;9.212;2022-10-22T07:35:06;17.10;93.40
19258;DHT22;9763;48.780;9.212;2022-10-22T07:38:30;17.10;93.60
19258;DHT22;9763;48.780;9.212;2022-10-22T07:41:54;17.10;93.80
19258;DHT22;9763;48.780;9.212;2022-10-22T07:45:17;17.20;93.70
19258;DHT22;9763;48.780;9.212;2022-10-22T07:48:42;17.20;93.60
19258;DHT22;9763;48.780;9.212;2022-10-22T07:52:06;17.20;93.30
19258;DHT22;9763;48.780;9.212;2022-10-22T07:55:29;17.20;93.50
19258;DHT22;9763;48.780;9.212;2022-10-22T07:58:53;17.30;93.50
19258;DHT22;9763;48.780;9.212;2022-10-22T08:02:17;17.30;93.70
19258;DHT22;9763;48.780;9.212;2022-10-22T08:05:42;17.40;94.80
19258;DHT22;9763;48.780;9.212;2022-10-22T08:09:06;17.50;96.50
19258;DHT22;9763;48.780;9.212;2022-10-22T08:12:30;17.70;96.60
19258;DHT22;9763;48.780;9.212;2022-10-22T08:15:53;17.80;96.30
19258;DHT22;9763;48.780;9.212;2022-10-22T08:19:18;17.90;96.60
19258;DHT22;9763;48.780;9.212;2022-10-22T08:22:43;18.10;96.90
19258;DHT22;9763;48.780;9.212;2022-10-22T08:26:08;18.20;96.80
19258;DHT22;9763;48.780;9.212;2022-10-22T08:29:32;18.30;97.40
19258;DHT22;9763;48.780;9.212;2022-10-22T08:32:55;18.50;97.10
19258;DHT22;9763;48.780;9.212;2022-10-22T08:36:19;18.60;97.10
19258;DHT22;9763;48.780;9.212;2022-10-22T08:39:44;18.70;97.60
19258;DHT22;9763;48.780;9.212;2022-10-22T08:47:21;19.10;96.10
19258;DHT22;9763;48.780;9.212;2022-10-22T08:50:58;19.20;95.90
19258;DHT22;9763;48.780;9.212;2022-10-22T08:54:29;19.40;95.10
19258;DHT22;9763;48.780;9.212;2022-10-22T08:58:05;19.50;93.90
19258;DHT22;9763;48.780;9.212;2022-10-22T09:01:42;19.50;92.60
19258;DHT22;9763;48.780;9.212;2022-10-22T09:05:22;19.40;91.70
19258;DHT22;9763;48.780;9.212;2022-10-22T09:08:56;19.30;90.90
19258;DHT22;9763;48.780;9.212;2022-10-22T09:12:22;19.20;90.60
19258;DHT22;9763;48.780;9.212;2022-10-22T09:15:51;19.10;91.20
19258;DHT22;9763;48.780;9.212;2022-10-22T09:19:21;19.00;91.30
19258;DHT22;9763;48.780;9.212;2022-10-22T09:22:57;19.00;91.70
19258;DHT22;9763;48.780;9.212;2022-10-22T09:26:36;18.90;91.60
19258;DHT22;9763;48.780;9.212;2022-10-22T09:30:01;18.90;94.80
19258;DHT22;9763;48.780;9.212;2022-10-22T09:33:28;19.20;99.90
19258;DHT22;9763;48.780;9.212;2022-10-22T09:36:57;19.90;99.90
19258;DHT22;9763;48.780;9.212;2022-10-22T09:40:21;20.70;99.90
19258;DHT22;9763;48.780;9.212;2022-10-22T09:43:46;21.70;99.90
19258;DHT22;9763;48.780;9.212;2022-10-22T09:47:32;22.60;99.90
19258;DHT22;9763;48.780;9.212;2022-10-22T09:51:17;23.80;99.90
19258;DHT22;9763;48.780;9.212;2022-10-22T09:54:41;24.80;99.90
19258;DHT22;9763;48.780;9.212;2022-10-22T09:58:10;25.70;99.90
19258;DHT22;9763;48.780;9.212;2022-10-22T10:01:36;26.60;99.90
19258;DHT22;9763;48.780;9.212;2022-10-22T10:05:02;27.30;99.90
19258;DHT22;9763;48.780;9.212;2022-10-22T10:08:28;27.90;99.90
19258;DHT22;9763;48.780;9.212;2022-10-22T10:15:27;28.50;99.10
19258;DHT22;9763;48.780;9.212;2022-10-22T10:19:21;29.50;95.50
19258;DHT22;9763;48.780;9.212;2022-10-22T10:22:59;30.10;92.50
19258;DHT22;9763;48.780;9.212;2022-10-22T10:26:36;30.50;92.60
19258;DHT22;9763;48.780;9.212;2022-10-22T10:30:10;30.90;91.80
19258;DHT22;9763;48.780;9.212;2022-10-22T10:33:42;31.40;91.10
19258;DHT22;9763;48.780;9.212;2022-10-22T10:37:18;31.70;89.70
19258;DHT22;9763;48.780;9.212;2022-10-22T10:40:49;32.10;87.50
19258;DHT22;9763;48.780;9.212;2022-10-22T10:44:35;32.20;81.50
19258;DHT22;9763;48.780;9.212;2022-10-22T10:48:20;32.20;76.80
19258;DHT22;9763;48.780;9.212;2022-10-22T10:51:59;32.00;73.00
19258;DHT22;9763;48.780;9.212;2022-10-22T10:55:31;31.60;74.50
19258;DHT22;9763;48.780;9.212;2022-10-22T10:59:05;31.10;73.60
19258;DHT22;9763;48.780;9.212;2022-10-22T11:03:11;30.70;75.20
19258;DHT22;9763;48.780;9.212;2022-10-22T11:07:05;30.50;75.60
19258;DHT22;9763;48.780;9.212;2022-10-22T11:10:46;30.40;80.30
19258;DHT22;9763;48.780;9.212;2022-10-22T11:14:17;30.30;77.50
19258;DHT22;9763;48.780;9.212;2022-10-22T11:17:52;30.00;72.90
19258;DHT22;9763;48.780;9.212;2022-10-22T11:21:26;29.50;73.30
19258;DHT22;9763;48.780;9.212;2022-10-22T11:24:58;29.00;77.30
19258;DHT22;9763;48.780;9.212;2022-10-22T11:28:28;28.80;78.80
19258;DHT22;9763;48.780;9.212;2022-10-22T11:31:56;28.50;77.40
19258;DHT22;9763;48.780;9.212;2022-10-22T11:35:25;27.90;76.20
19258;DHT22;9763;48.780;9.212;2022-10-22T11:38:51;27.50;75.90
19258;DHT22;9763;48.780;9.212;2022-10-22T11:42:18;27.50;78.90
19258;DHT22;9763;48.780;9.212;2022-10-22T11:45:49;27.20;78.50
19258;DHT22;9763;48.780;9.212;2022-10-22T11:49:24;26.90;78.10
19258;DHT22;9763;48.780;9.212;2022-10-22T11:52:59;26.60;79.10
19258;DHT22;9763;48.780;9.212;2022-10-22T11:56:26;26.30;76.80
19258;DHT22;9763;48.780;9.212;2022-10-22T11:59:59;25.80;76.10
19258;DHT22;9763;48.780;9.212;2022-10-22T12:03:38;25.40;78.10
19258;DHT22;9763;48.780;9.212;2022-10-22T12:07:29;25.00;79.80
19258;DHT22;9763;48.780;9.212;2022-10-22T12:11:02;25.00;77.80
19258;DHT22;9763;48.780;9.212;2022-10-22T12:14:31;24.80;80.80
19258;DHT22;9763;48.780;9.212;2022-10-22T12:17:59;24.70;82.50
19258;DHT22;9763;48.780;9.212;2022-10-22T12:21:24;24.50;84.20
19258;DHT22;9763;48.780;9.212;2022-10-22T12:24:50;24.50;86.00
19258;DHT22;9763;48.780;9.212;2022-10-22T12:28:18;24.50;85.60
19258;DHT22;9763;48.780;9.212;2022-10-22T12:31:44;24.50;85.30
19258;DHT22;9763;48.780;9.212;2022-10-22T12:35:15;24.50;85.70
19258;DHT22;9763;48.780;9.212;2022-10-22T12:38:39;24.50;85.40
19258;DHT22;9763;48.780;9.212;2022-10-22T12:42:12;24.50;88.10
19258;DHT22;9763;48.780;9.212;2022-10-22T12:45:40;24.60;87.80
19258;DHT22;9763;48.780;9.212;2022-10-22T12:49:13;24.70;87.80
19258;DHT22;9763;48.780;9.212;2022-10-22T12:52:39;24.70;86.30
19258;DHT22;9763;48.780;9.212;2022-10-22T12:56:06;24.70;86.90
19258;DHT22;9763;48.780;9.212;2022-10-22T12:59:34;24.70;86.10
19258;DHT22;9763;48.780;9.212;2022-10-22T13:03:05;24.70;86.00
19258;DHT22;9763;48.780;9.212;2022-10-22T13:06:32;24.60;84.90
19258;DHT22;9763;48.780;9.212;2022-10-22T13:09:58;24.50;86.00
19258;DHT22;9763;48.780;9.212;2022-10-22T13:13:30;24.40;85.80
19258;DHT22;9763;48.780;9.212;2022-10-22T13:17:06;24.40;83.90
19258;DHT22;9763;48.780;9.212;2022-10-22T13:20:49;24.30;84.90
19258;DHT22;9763;48.780;9.212;2022-10-22T13:24:19;24.30;83.00
19258;DHT22;9763;48.780;9.212;2022-10-22T13:27:46;24.20;83.90
19258;DHT22;9763;48.780;9.212;2022-10-22T13:31:16;24.20;85.70
19258;DHT22;9763;48.780;9.212;2022-10-22T13:34:43;24.10;85.30
19258;DHT22;9763;48.780;9.212;2022-10-22T13:38:12;24.10;85.90
19258;DHT22;9763;48.780;9.212;2022-10-22T13:41:40;24.20;85.10
19258;DHT22;9763;48.780;9.212;2022-10-22T13:45:04;24.10;85.90
19258;DHT22;9763;48.780;9.212;2022-10-22T13:48:29;24.00;86.50
19258;DHT22;9763;48.780;9.212;2022-10-22T13:51:52;24.00;87.00
19258;DHT22;9763;48.780;9.212;2022-10-22T13:55:20;24.00;87.70
19258;DHT22;9763;48.780;9.212;2022-10-22T13:58:47;24.00;86.40
19258;DHT22;9763;48.780;9.212;2022-10-22T14:02:11;24.00;87.80
19258;DHT22;9763;48.780;9.212;2022-10-22T14:05:37;24.10;88.50
19258;DHT22;9763;48.780;9.212;2022-10-22T14:09:03;24.10;88.90
19258;DHT22;9763;48.780;9.212;2022-10-22T14:12:31;24.10;87.70
19258;DHT22;9763;48.780;9.212;2022-10-22T14:15:54;24.20;87.60
19258;DHT22;9763;48.780;9.212;2022-10-22T14:19:18;24.10;87.30
19258;DHT22;9763;48.780;9.212;2022-10-22T14:22:41;24.10;86.90
19258;DHT22;9763;48.780;9.212;2022-10-22T14:26:06;24.00;86.20
19258;DHT22;9763;48.780;9.212;2022-10-22T14:29:32;24.00;85.70
19258;DHT22;9763;48.780;9.212;2022-10-22T14:32:57;23.90;85.20
19258;DHT22;9763;48.780;9.212;2022-10-22T14:36:22;23.70;84.60
19258;DHT22;9763;48.780;9.212;2022-10-22T14:39:46;23.50;84.10
19258;DHT22;9763;48.780;9.212;2022-10-22T14:43:17;23.40;84.00
19258;DHT22;9763;48.780;9.212;2022-10-22T14:46:44;23.20;83.50
19258;DHT22;9763;48.780;9.212;2022-10-22T14:50:08;23.00;83.40
19258;DHT22;9763;48.780;9.212;2022-10-22T14:53:32;22.80;83.70
19258;DHT22;9763;48.780;9.212;2022-10-22T14:56:56;22.70;84.00
19258;DHT22;9763;48.780;9.212;2022-10-22T15:00:19;22.50;84.00
19258;DHT22;9763;48.780;9.212;2022-10-22T15:03:45;22.30;84.10
19258;DHT22;9763;48.780;9.212;2022-10-22T15:07:08;22.10;84.40
19258;DHT22;9763;48.780;9.212;2022-10-22T15:10:36;22.00;85.30
19258;DHT22;9763;48.780;9.212;2022-10-22T15:14:00;21.90;85.40
19258;DHT22;9763;48.780;9.212;2022-10-22T15:17:24;21.80;85.90
19258;DHT22;9763;48.780;9.212;2022-10-22T15:20:56;21.60;86.00
19258;DHT22;9763;48.780;9.212;2022-10-22T15:24:20;21.60;84.90
19258;DHT22;9763;48.780;9.212;2022-10-22T15:27:44;21.60;86.50
19258;DHT22;9763;48.780;9.212;2022-10-22T15:31:13;21.40;86.50
19258;DHT22;9763;48.780;9.212;2022-10-22T15:34:38;21.40;86.60
19258;DHT22;9763;48.780;9.212;2022-10-22T15:38:03;21.30;86.40
19258;DHT22;9763;48.780;9.212;2022-10-22T15:41:34;21.20;86.30
19258;DHT22;9763;48.780;9.212;2022-10-22T15:44:58;21.20;87.50
19258;DHT22;9763;48.780;9.212;2022-10-22T15:48:23;21.10;86.70
19258;DHT22;9763;48.780;9.212;2022-10-22T15:51:47;21.00;86.80
19258;DHT22;9763;48.780;9.212;2022-10-22T15:55:12;20.90;86.50
19258;DHT22;9763;48.780;9.212;2022-10-22T15:58:35;20.90;85.80
19258;DHT22;9763;48.780;9.212;2022-10-22T16:01:59;20.80;86.20
19258;DHT22;9763;48.780;9.212;2022-10-22T16:05:22;19.80;85.30
19258;DHT22;9763;48.780;9.212;2022-10-22T16:08:46;20.60;86.10
19258;DHT22;9763;48.780;9.212;2022-10-22T16:12:11;20.50;85.90
19258;DHT22;9763;48.780;9.212;2022-10-22T16:15:38;20.60;85.70
19258;DHT22;9763;48.780;9.212;2022-10-22T16:19:02;20.40;85.60
19258;DHT22;9763;48.780;9.212;2022-10-22T16:22:25;20.40;85.30
19258;DHT22;9763;48.780;9.212;2022-10-22T16:25:49;20.20;85.10
19258;DHT22;9763;48.780;9.212;2022-10-22T16:29:14;20.10;85.10
19258;DHT22;9763;48.780;9.212;2022-10-22T16:32:37;20.00;84.80
19258;DHT22;9763;48.780;9.212;2022-10-22T16:36:01;20.00;86.00
19258;DHT22;9763;48.780;9.212;2022-10-22T16:39:25;19.90;86.30
19258;DHT22;9763;48.780;9.212;2022-10-22T16:42:49;19.80;86.40
19258;DHT22;9763;48.780;9.212;2022-10-22T16:46:14;19.80;86.80
19258;DHT22;9763;48.780;9.212;2022-10-22T16:49:38;19.80;87.20
19258;DHT22;9763;48.780;9.212;2022-10-22T16:53:02;19.80;88.90
19258;DHT22;9763;48.780;9.212;2022-10-22T16:56:26;19.80;88.10
19258;DHT22;9763;48.780;9.212;2022-10-22T16:59:49;19.70;87.90
19258;DHT22;9763;48.780;9.212;2022-10-22T17:03:14;19.70;87.70
19258;DHT22;9763;48.780;9.212;2022-10-22T17:06:37;19.70;87.50
19258;DHT22;9763;48.780;9.212;2022-10-22T17:10:01;19.70;87.60
19258;DHT22;9763;48.780;9.212;2022-10-22T17:13:26;19.70;88.00
19258;DHT22;9763;48.780;9.212;2022-10-22T17:16:49;19.70;88.50
19258;DHT22;9763;48.780;9.212;2022-10-22T17:20:16;19.70;88.50
19258;DHT22;9763;48.780;9.212;2022-10-22T17:23:40;19.70;88.20
19258;DHT22;9763;48.780;9.212;2022-10-22T17:27:04;19.70;88.90
19258;DHT22;9763;48.780;9.212;2022-10-22T17:30:27;19.60;89.20
19258;DHT22;9763;48.780;9.212;2022-10-22T17:33:52;19.60;89.70
19258;DHT22;9763;48.780;9.212;2022-10-22T17:37:18;19.60;89.60
19258;DHT22;9763;48.780;9.212;2022-10-22T17:40:42;19.70;89.10
19258;DHT22;9763;48.780;9.212;2022-10-22T17:44:07;19.70;88.50
19258;DHT22;9763;48.780;9.212;2022-10-22T17:47:30;19.70;87.30
19258;DHT22;9763;48.780;9.212;2022-10-22T17:50:54;19.60;86.20
19258;DHT22;9763;48.780;9.212;2022-10-22T17:54:21;19.60;85.30
19258;DHT22;9763;48.780;9.212;2022-10-22T17:57:45;19.50;84.50
19258;DHT22;9763;48.780;9.212;2022-10-22T18:01:16;19.30;84.60
19258;DHT22;9763;48.780;9.212;2022-10-22T18:04:41;19.20;83.80
19258;DHT22;9763;48.780;9.212;2022-10-22T18:08:05;19.10;84.40
19258;DHT22;9763;48.780;9.212;2022-10-22T18:11:30;19.00;84.10
19258;DHT22;9763;48.780;9.212;2022-10-22T18:14:54;18.90;83.90
19258;DHT22;9763;48.780;9.212;2022-10-22T18:18:17;18.80;84.20
19258;DHT22;9763;48.780;9.212;2022-10-22T18:21:41;18.70;83.90
19258;DHT22;9763;48.780;9.212;2022-10-22T18:25:05;18.60;84.30
19258;DHT22;9763;48.780;9.212;2022-10-22T18:28:30;18.50;84.50
19258;DHT22;9763;48.780;9.212;2022-10-22T18:31:54;18.40;84.90
19258;DHT22;9763;48.780;9.212;2022-10-22T18:35:18;18.30;85.50
19258;DHT22;9763;48.780;9.212;2022-10-22T18:38:41;18.30;86.00
19258;DHT22;9763;48.780;9.212;2022-10-22T18:42:05;16.10;84.00
19258;DHT22;9763;48.780;9.212;2022-10-22T18:45:31;18.20;86.60
19258;DHT22;9763;48.780;9.212;2022-10-22T18:48:56;18.20;86.30
19258;DHT22;9763;48.780;9.212;2022-10-22T18:52:20;18.20;86.50
19258;DHT22;9763;48.780;9.212;2022-10-22T18:55:43;18.20;86.60
19258;DHT22;9763;48.780;9.212;2022-10-22T18:59:13;18.10;86.70
19258;DHT22;9763;48.780;9.212;2022-10-22T19:02:40;18.10;86.40
19258;DHT22;9763;48.780;9.212;2022-10-22T19:06:05;18.10;87.10
19258;DHT22;9763;48.780;9.212;2022-10-22T19:09:28;18.10;87.60
19258;DHT22;9763;48.780;9.212;2022-10-22T19:12:52;18.10;87.50
19258;DHT22;9763;48.780;9.212;2022-10-22T19:16:17;18.10;87.50
19258;DHT22;9763;48.780;9.212;2022-10-22T19:19:45;18.10;87.90
19258;DHT22;9763;48.780;9.212;2022-10-22T19:23:09;18.10;88.00
19258;DHT22;9763;48.780;9.212;2022-10-22T19:26:33;18.10;88.40
19258;DHT22;9763;48.780;9.212;2022-10-22T19:29:56;18.10;88.40
19258;DHT22;9763;48.780;9.212;2022-10-22T19:33:20;18.10;88.40
19258;DHT22;9763;48.780;9.212;2022-10-22T19:36:44;18.10;88.60
19258;DHT22;9763;48.780;9.212;2022-10-22T19:40:09;18.00;88.20
19258;DHT22;9763;48.780;9.212;2022-10-22T19:43:33;18.00;88.50
19258;DHT22;9763;48.780;9.212;2022-10-22T19:46:56;18.10;88.40
19258;DHT22;9763;48.780;9.212;2022-10-22T19:50:20;18.00;87.80
19258;DHT22;9763;48.780;9.212;2022-10-22T19:53:45;18.10;87.50
19258;DHT22;9763;48.780;9.212;2022-10-22T19:57:09;18.00;86.70
19258;DHT22;9763;48.780;9.212;2022-10-22T20:00:37;18.00;86.90
19258;DHT22;9763;48.780;9.212;2022-10-22T20:04:00;17.90;86.70
19258;DHT22;9763;48.780;9.212;2022-10-22T20:07:24;17.90;87.00
19258;DHT22;9763;48.780;9.212;2022-10-22T20:10:51;17.80;86.60
19258;DHT22;9763;48.780;9.212;2022-10-22T20:14:14;17.80;86.60
19258;DHT22;9763;48.780;9.212;2022-10-22T20:17:38;17.70;87.00
19258;DHT22;9763;48.780;9.212;2022-10-22T20:21:03;17.70;86.90
19258;DHT22;9763;48.780;9.212;2022-10-22T20:24:26;17.60;86.60
19258;DHT22;9763;48.780;9.212;2022-10-22T20:27:51;17.60;86.90
19258;DHT22;9763;48.780;9.212;2022-10-22T20:31:17;17.60;86.70
19258;DHT22;9763;48.780;9.212;2022-10-22T20:34:42;17.50;86.10
19258;DHT22;9763;48.780;9.212;2022-10-22T20:38:07;17.50;86.20
19258;DHT22;9763;48.780;9.212;2022-10-22T20:41:35;17.40;86.40
19258;DHT22;9763;48.780;9.212;2022-10-22T20:45:03;17.40;86.80
19258;DHT22;9763;48.780;9.212;2022-10-22T20:48:27;17.40;86.70
19258;DHT22;9763;48.780;9.212;2022-10-22T20:51:52;17.40;86.70
19258;DHT22;9763;48.780;9.212;2022-10-22T20:55:16;17.40;86.70
19258;DHT22;9763;48.780;9.212;2022-10-22T20:58:40;17.40;86.50
19258;DHT22;9763;48.780;9.212;2022-10-22T21:02:10;17.30;86.30
19258;DHT22;9763;48.780;9.212;2022-10-22T21:05:34;17.30;86.10
19258;DHT22;9763;48.780;9.212;2022-10-22T21:08:57;17.20;85.90
19258;DHT22;9763;48.780;9.212;2022-10-22T21:12:21;17.20;85.80
19258;DHT22;9763;48.780;9.212;2022-10-22T21:15:45;17.20;85.70
19258;DHT22;9763;48.780;9.212;2022-10-22T21:19:10;17.10;84.50
19258;DHT22;9763;48.780;9.212;2022-10-22T21:22:34;17.20;85.40
19258;DHT22;9763;48.780;9.212;2022-10-22T21:25:58;17.10;84.50
19258;DHT22;9763;48.780;9.212;2022-10-22T21:29:21;17.00;84.70
19258;DHT22;9763;48.780;9.212;2022-10-22T21:36:10;17.00;84.60
19258;DHT22;9763;48.780;9.212;2022-10-22T21:43:03;16.90;84.90
19258;DHT22;9763;48.780;9.212;2022-10-22T21:46:27;16.90;85.90
19258;DHT22;9763;48.780;9.212;2022-10-22T21:53:16;16.80;85.80
19258;DHT22;9763;48.780;9.212;2022-10-22T21:56:40;16.80;85.80
19258;DHT22;9763;48.780;9.212;2022-10-22T22:00:05;16.70;85.70
19258;DHT22;9763;48.780;9.212;2022-10-22T22:03:41;16.70;85.60
19258;DHT22;9763;48.780;9.212;2022-10-22T22:13:55;16.60;85.20
19258;DHT22;9763;48.780;9.212;2022-10-22T22:20:44;16.60;85.80
19258;DHT22;9763;48.780;9.212;2022-10-22T22:24:10;16.50;85.90
19258;DHT22;9763;48.780;9.212;2022-10-22T22:27:36;16.60;86.20
19258;DHT22;9763;48.780;9.212;2022-10-22T22:31:00;16.50;85.10
19258;DHT22;9763;48.780;9.212;2022-10-22T22:34:24;16.50;87.60
19258;DHT22;9763;48.780;9.212;2022-10-22T22:37:48;16.50;88.00
19258;DHT22;9763;48.780;9.212;2022-10-22T22:41:11;16.50;88.20
19258;DHT22;9763;48.780;9.212;2022-10-22T22:44:37;16.50;87.90
19258;DHT22;9763;48.780;9.212;2022-10-22T22:48:01;16.50;87.30
19258;DHT22;9763;48.780;9.212;2022-10-22T22:51:25;16.50;87.00
19258;DHT22;9763;48.780;9.212;2022-10-22T22:54:48;16.50;86.50
19258;DHT22;9763;48.780;9.212;2022-10-22T22:58:12;16.50;86.30
19258;DHT22;9763;48.780;9.212;2022-10-22T23:01:38;16.40;86.00
19258;DHT22;9763;48.780;9.212;2022-10-22T23:05:01;16.40;86.00
19258;DHT22;9763;48.780;9.212;2022-10-22T23:08:25;16.40;86.20